createdAt,value
2023-05-01T00:00:38.345Z,99856.22
2023-05-01T00:03:06.819Z,99858.88
2023-05-01T00:05:34.787Z,99856.88
2023-05-01T00:08:03.573Z,99864.38
2023-05-01T00:10:31.818Z,99859.22
2023-05-01T00:12:59.735Z,99868.38
2023-05-01T00:15:27.661Z,99870.41
2023-05-01T00:17:55.818Z,99872.28
2023-05-01T00:20:28.324Z,99879.38
2023-05-01T00:22:56.723Z,99880.34
2023-05-01T00:25:24.729Z,99883.81
2023-05-01T00:27:52.682Z,99884.81
2023-05-01T00:30:21.012Z,99881.88
2023-05-01T00:32:48.988Z,99885.56
2023-05-01T00:35:17.038Z,99887.91
2023-05-01T00:37:45.168Z,99890.53
2023-05-01T00:40:13.146Z,99897.41
2023-05-01T00:42:41.028Z,99894.38
2023-05-01T00:45:09.933Z,99901.91
2023-05-01T00:47:38.919Z,99899.19
2023-05-01T00:50:07.987Z,99903.53
2023-05-01T00:52:36.443Z,99902.50
2023-05-01T00:55:05.520Z,99902.00
2023-05-01T00:57:33.855Z,99910.63
2023-05-01T01:00:01.978Z,99912.22
2023-05-01T01:02:29.965Z,99909.69
2023-05-01T01:04:58.400Z,99916.97
2023-05-01T01:08:08.099Z,99911.97
2023-05-01T01:10:47.116Z,99913.25
2023-05-01T01:13:34.142Z,99916.72
2023-05-01T01:16:19.571Z,99915.69
2023-05-01T01:19:19.470Z,99917.03
2023-05-01T01:21:55.457Z,99919.47
2023-05-01T01:25:20.551Z,99911.69
2023-05-01T01:28:25.858Z,99914.50
2023-05-01T01:31:21.581Z,99922.66
2023-05-01T01:33:51.743Z,99916.22
2023-05-01T01:36:48.308Z,99925.41
2023-05-01T01:39:21.214Z,99921.50
2023-05-01T01:41:53.653Z,99922.81
2023-05-01T01:44:40.372Z,99928.38
2023-05-01T01:47:12.445Z,99927.09
2023-05-01T01:49:47.211Z,99930.59
2023-05-01T01:52:17.440Z,99939.56
2023-05-01T01:55:13.526Z,99929.00
2023-05-01T01:57:45.166Z,99932.69
2023-05-01T02:00:16.568Z,99933.94
2023-05-01T02:02:49.089Z,99943.34
2023-05-01T02:05:19.562Z,99939.88
2023-05-01T02:07:50.372Z,99940.03
2023-05-01T02:10:19.819Z,99932.38
2023-05-01T02:12:51.142Z,99939.63
2023-05-01T02:15:21.179Z,99939.53
2023-05-01T02:17:51.430Z,99928.31
2023-05-01T02:20:21.698Z,99938.09
2023-05-01T02:22:53.650Z,99946.31
2023-05-01T02:25:22.311Z,99950.63
2023-05-01T02:28:01.039Z,99940.09
2023-05-01T02:30:29.283Z,99948.66
2023-05-01T02:32:58.007Z,99947.47
2023-05-01T02:35:26.467Z,99947.69
2023-05-01T02:37:54.427Z,99952.94
2023-05-01T02:40:22.557Z,99951.44
2023-05-01T02:42:53.397Z,99950.81
2023-05-01T02:45:25.357Z,99954.56
2023-05-01T02:48:00.115Z,99956.28
2023-05-01T02:50:28.876Z,99958.13
2023-05-01T02:52:58.589Z,99955.28
2023-05-01T02:55:37.772Z,99961.38
2023-05-01T02:58:05.713Z,99956.13
2023-05-01T03:00:33.690Z,99967.47
2023-05-01T03:03:01.991Z,99960.53
2023-05-01T03:05:30.164Z,99963.38
2023-05-01T03:07:58.087Z,99967.13
2023-05-01T03:10:26.439Z,99967.34
2023-05-01T03:12:54.285Z,99967.44
2023-05-01T03:15:22.342Z,99966.72
2023-05-01T03:17:50.783Z,99970.25
2023-05-01T03:20:18.712Z,99968.56
2023-05-01T03:22:46.629Z,99972.06
2023-05-01T03:25:15.282Z,99976.47
2023-05-01T03:27:43.195Z,99966.75
2023-05-01T03:30:13.118Z,99965.78
2023-05-01T03:32:43.100Z,99967.63
2023-05-01T03:35:19.368Z,99966.56
2023-05-01T03:37:47.891Z,99969.25
2023-05-01T03:40:26.256Z,99969.97
2023-05-01T03:43:13.064Z,99970.75
2023-05-01T03:45:42.263Z,99970.44
2023-05-01T03:48:14.186Z,99971.06
2023-05-01T03:50:42.949Z,99971.16
2023-05-01T03:53:11.991Z,99973.53
2023-05-01T03:55:40.701Z,99976.56
2023-05-01T03:58:09.032Z,99977.91
2023-05-01T04:00:37.825Z,99976.19
2023-05-01T04:03:06.080Z,99978.81
2023-05-01T04:05:36.168Z,99975.75
2023-05-01T04:08:04.808Z,99975.31
2023-05-01T04:10:33.271Z,99976.88
2023-05-01T04:13:07.032Z,99972.88
2023-05-01T04:15:36.470Z,99975.78
2023-05-01T04:18:04.825Z,99976.19
2023-05-01T04:20:34.188Z,99978.25
2023-05-01T04:23:02.235Z,99980.94
2023-05-01T04:25:30.259Z,99974.91
2023-05-01T04:28:12.379Z,99978.69
2023-05-01T04:30:40.424Z,99972.41
2023-05-01T04:33:11.747Z,99979.34
2023-05-01T04:35:43.850Z,99977.03
2023-05-01T04:38:12.118Z,99977.09
2023-05-01T04:40:41.893Z,99976.69
2023-05-01T04:43:11.458Z,99977.91
2023-05-01T04:45:40.024Z,99959.63
2023-05-01T04:48:08.352Z,99962.25
2023-05-01T04:50:37.905Z,99960.84
2023-05-01T04:53:06.039Z,99964.66
2023-05-01T04:55:36.603Z,99961.97
2023-05-01T04:58:13.285Z,99955.25
2023-05-01T05:00:41.765Z,99951.16
2023-05-01T05:03:12.542Z,99953.88
2023-05-01T05:05:40.762Z,99948.47
2023-05-01T05:08:09.471Z,99944.75
2023-05-01T05:10:40.932Z,99934.66
2023-05-01T05:13:22.188Z,99941.91
2023-05-01T05:15:58.067Z,99943.50
2023-05-01T05:18:27.573Z,99938.66
2023-05-01T05:20:56.456Z,99940.69
2023-05-01T05:23:24.916Z,99928.56
2023-05-01T05:25:53.041Z,99936.47
2023-05-01T05:28:21.272Z,99931.03
2023-05-01T05:30:49.565Z,99924.72
2023-05-01T05:33:20.918Z,99914.56
2023-05-01T05:35:49.288Z,99909.00
2023-05-01T05:38:17.918Z,99906.09
2023-05-01T05:40:48.928Z,99893.59
2023-05-01T05:43:17.271Z,99896.81
2023-05-01T05:45:46.072Z,99881.56
2023-05-01T05:48:14.616Z,99885.50
2023-05-01T05:50:42.719Z,99874.63
2023-05-01T05:53:13.938Z,99877.47
2023-05-01T05:55:46.891Z,99868.47
2023-05-01T05:58:20.147Z,99879.66
2023-05-01T06:00:51.048Z,99877.28
2023-05-01T06:03:20.255Z,99881.13
2023-05-01T06:05:49.112Z,99882.75
2023-05-01T06:08:17.413Z,99876.69
2023-05-01T06:10:45.483Z,99884.63
2023-05-01T06:13:14.877Z,99882.28
2023-05-01T06:15:49.450Z,99891.56
2023-05-01T06:18:17.867Z,99882.56
2023-05-01T06:20:47.356Z,99887.34
2023-05-01T06:23:16.749Z,99879.75
2023-05-01T06:26:05.094Z,99882.31
2023-05-01T06:28:33.840Z,99885.25
2023-05-01T06:31:02.090Z,99883.00
2023-05-01T06:33:34.897Z,99884.25
2023-05-01T06:36:13.760Z,99887.75
2023-05-01T06:38:48.786Z,99886.22
2023-05-01T06:41:17.401Z,99895.56
2023-05-01T06:43:46.935Z,99888.28
2023-05-01T06:46:17.604Z,99886.94
2023-05-01T06:48:46.389Z,99875.38
2023-05-01T06:51:16.252Z,99875.81
2023-05-01T06:53:44.425Z,99883.25
2023-05-01T06:56:12.401Z,99873.44
2023-05-01T06:58:40.555Z,99874.94
2023-05-01T07:01:09.934Z,99874.06
2023-05-01T07:03:37.928Z,99877.44
2023-05-01T07:06:06.444Z,99876.88
2023-05-01T07:08:34.620Z,99877.03
2023-05-01T07:11:03.073Z,99875.72
2023-05-01T07:13:32.013Z,99875.50
2023-05-01T07:16:03.798Z,99884.34
2023-05-01T07:18:32.052Z,99881.22
2023-05-01T07:20:59.951Z,99862.38
2023-05-01T07:23:27.984Z,99873.69
2023-05-01T07:25:58.597Z,99874.22
2023-05-01T07:28:26.740Z,99872.72
2023-05-01T07:30:54.826Z,99871.41
2023-05-01T07:33:27.343Z,99867.78
2023-05-01T07:35:55.510Z,99871.94
2023-05-01T07:38:23.891Z,99876.63
2023-05-01T07:40:54.009Z,99868.78
2023-05-01T07:43:22.595Z,99877.75
2023-05-01T07:46:00.813Z,99876.06
2023-05-01T07:48:29.139Z,99875.81
2023-05-01T07:50:57.282Z,99878.34
2023-05-01T07:53:25.645Z,99871.84
2023-05-01T07:55:53.604Z,99875.72
2023-05-01T07:58:21.600Z,99874.47
2023-05-01T08:00:49.810Z,99879.00
2023-05-01T08:03:18.333Z,99874.81
2023-05-01T08:05:46.554Z,99869.59
2023-05-01T08:08:20.960Z,99874.97
2023-05-01T08:10:49.477Z,99880.34
2023-05-01T08:13:17.689Z,99871.63
2023-05-01T08:15:48.103Z,99873.09
2023-05-01T08:18:20.627Z,99859.72
2023-05-01T08:20:49.893Z,99868.56
2023-05-01T08:23:18.749Z,99861.16
2023-05-01T08:25:47.065Z,99855.88
2023-05-01T08:28:21.587Z,99865.94
2023-05-01T08:30:49.631Z,99854.28
2023-05-01T08:33:18.115Z,99867.03
2023-05-01T08:35:46.182Z,99848.19
2023-05-01T08:38:14.246Z,99862.53
2023-05-01T08:40:48.674Z,99864.50
2023-05-01T08:43:17.389Z,99855.03
2023-05-01T08:45:49.003Z,99865.63
2023-05-01T08:48:20.989Z,99847.16
2023-05-01T08:50:49.751Z,99856.91
2023-05-01T08:53:21.045Z,99862.59
2023-05-01T08:55:50.887Z,99854.03
2023-05-01T08:58:22.325Z,99852.69
2023-05-01T09:00:50.626Z,99852.13
2023-05-01T09:03:19.668Z,99857.31
2023-05-01T09:05:48.093Z,99863.88
2023-05-01T09:08:16.463Z,99862.69
2023-05-01T09:10:48.537Z,99852.59
2023-05-01T09:13:16.843Z,99854.06
2023-05-01T09:15:45.275Z,99854.44
2023-05-01T09:18:13.644Z,99860.97
2023-05-01T09:20:42.661Z,99843.81
2023-05-01T09:23:11.634Z,99840.00
2023-05-01T09:25:39.736Z,99840.78
2023-05-01T09:28:07.761Z,99844.31
2023-05-01T09:30:40.071Z,99850.25
2023-05-01T09:33:13.981Z,99839.28
2023-05-01T09:35:59.856Z,99844.06
2023-05-01T09:38:29.731Z,99837.72
2023-05-01T09:41:06.139Z,99833.47
2023-05-01T09:43:34.541Z,99848.72
2023-05-01T09:46:11.946Z,99828.84
2023-05-01T09:48:57.910Z,99836.09
2023-05-01T09:51:27.697Z,99840.34
2023-05-01T09:54:06.123Z,99841.91
2023-05-01T09:56:46.575Z,99841.00
2023-05-01T09:59:21.584Z,99836.53
2023-05-01T10:01:50.952Z,99844.88
2023-05-01T10:04:34.700Z,99837.53
2023-05-01T10:07:15.511Z,99817.34
2023-05-01T10:09:43.776Z,99826.97
2023-05-01T10:12:23.273Z,99833.31
2023-05-01T10:14:56.106Z,99832.78
2023-05-01T10:17:24.685Z,99829.91
2023-05-01T10:19:53.299Z,99822.59
2023-05-01T10:22:22.151Z,99833.38
2023-05-01T10:24:50.723Z,99827.50
2023-05-01T10:27:20.011Z,99831.78
2023-05-01T10:29:49.525Z,99818.66
2023-05-01T10:32:17.675Z,99815.81
2023-05-01T10:34:58.976Z,99809.97
2023-05-01T10:37:48.057Z,99810.28
2023-05-01T10:40:44.624Z,99812.38
2023-05-01T10:43:30.962Z,99806.59
2023-05-01T10:46:08.555Z,99805.72
2023-05-01T10:48:39.554Z,99809.44
2023-05-01T10:51:20.568Z,99810.22
2023-05-01T10:54:10.734Z,99800.28
2023-05-01T10:56:38.748Z,99802.56
2023-05-01T10:59:06.972Z,99793.38
2023-05-01T11:01:44.971Z,99804.50
2023-05-01T11:04:22.502Z,99806.09
2023-05-01T11:07:19.081Z,99793.63
2023-05-01T11:09:59.048Z,99793.34
2023-05-01T11:12:45.880Z,99795.56
2023-05-01T11:15:34.036Z,99784.56
2023-05-01T11:18:04.048Z,99780.22
2023-05-01T11:20:37.979Z,99776.41
2023-05-01T11:23:08.021Z,99788.88
2023-05-01T11:25:36.337Z,99771.38
2023-05-01T11:28:07.875Z,99779.66
2023-05-01T11:30:39.820Z,99787.13
2023-05-01T11:33:10.701Z,99769.22
2023-05-01T11:35:39.347Z,99766.16
2023-05-01T11:38:16.552Z,99756.59
2023-05-01T11:40:45.454Z,99763.16
2023-05-01T11:43:13.693Z,99759.78
2023-05-01T11:45:41.700Z,99746.66
2023-05-01T11:48:19.314Z,99742.72
2023-05-01T11:50:47.559Z,99754.81
2023-05-01T11:53:16.231Z,99751.31
2023-05-01T11:55:45.186Z,99744.44
2023-05-01T11:58:13.738Z,99741.50
2023-05-01T12:00:44.845Z,99746.75
2023-05-01T12:03:15.717Z,99738.81
2023-05-01T12:05:45.790Z,99736.09
2023-05-01T12:08:20.826Z,99722.38
2023-05-01T12:10:52.714Z,99741.31
2023-05-01T12:13:21.528Z,99718.41
2023-05-01T12:15:53.559Z,99726.13
2023-05-01T12:18:22.428Z,99727.59
2023-05-01T12:20:54.371Z,99729.22
2023-05-01T12:23:38.220Z,99717.16
2023-05-01T12:26:28.171Z,99722.28
2023-05-01T12:29:05.374Z,99714.44
2023-05-01T12:31:34.217Z,99717.88
2023-05-01T12:34:07.880Z,99702.69
2023-05-01T12:36:37.798Z,99704.28
2023-05-01T12:39:14.849Z,99716.34
2023-05-01T12:41:49.124Z,99712.16
2023-05-01T12:44:28.328Z,99705.44
2023-05-01T12:47:08.070Z,99695.09
2023-05-01T12:49:38.133Z,99693.59
2023-05-01T12:52:09.161Z,99688.63
2023-05-01T12:54:40.942Z,99689.13
2023-05-01T12:57:12.230Z,99693.34
2023-05-01T12:59:42.284Z,99683.53
2023-05-01T13:02:15.056Z,99676.72
2023-05-01T13:04:49.621Z,99692.38
2023-05-01T13:07:19.551Z,99687.94
2023-05-01T13:09:59.428Z,99680.38
2023-05-01T13:12:28.880Z,99679.28
2023-05-01T13:14:57.699Z,99678.03
2023-05-01T13:17:31.537Z,99669.41
2023-05-01T13:20:05.341Z,99684.19
2023-05-01T13:22:36.223Z,99663.97
2023-05-01T13:25:18.445Z,99670.81
2023-05-01T13:27:51.597Z,99665.78
2023-05-01T13:30:33.302Z,99676.03
2023-05-01T13:33:02.209Z,99669.84
2023-05-01T13:35:31.768Z,99662.34
2023-05-01T13:38:00.750Z,99660.38
2023-05-01T13:40:29.013Z,99651.84
2023-05-01T13:42:57.163Z,99662.50
2023-05-01T13:45:26.560Z,99651.63
2023-05-01T13:47:55.587Z,99653.09
2023-05-01T13:50:23.774Z,99649.03
2023-05-01T13:52:51.866Z,99645.66
2023-05-01T13:55:21.887Z,99636.47
2023-05-01T13:57:50.066Z,99631.94
2023-05-01T14:00:19.242Z,99649.06
2023-05-01T14:02:49.577Z,99636.66
2023-05-01T14:05:29.175Z,99644.59
2023-05-01T14:07:59.386Z,99644.78
2023-05-01T14:10:30.114Z,99626.03
2023-05-01T14:12:59.637Z,99629.94
2023-05-01T14:15:29.884Z,99635.56
2023-05-01T14:18:01.180Z,99643.47
2023-05-01T14:20:29.262Z,99629.13
2023-05-01T14:22:57.229Z,99620.53
2023-05-01T14:25:31.389Z,99624.25
2023-05-01T14:28:02.385Z,99623.66
2023-05-01T14:30:38.606Z,99627.06
2023-05-01T14:33:14.036Z,99612.47
2023-05-01T14:35:53.602Z,99618.69
2023-05-01T14:38:22.896Z,99612.63
2023-05-01T14:40:51.058Z,99613.53
2023-05-01T14:43:24.267Z,99611.69
2023-05-01T14:45:52.851Z,99595.19
2023-05-01T14:48:30.023Z,99616.03
2023-05-01T14:50:59.514Z,99605.03
2023-05-01T14:53:32.945Z,99614.16
2023-05-01T14:56:01.426Z,99611.84
2023-05-01T14:58:29.875Z,99602.19
2023-05-01T15:00:58.372Z,99601.75
2023-05-01T15:03:27.721Z,99598.28
2023-05-01T15:05:56.961Z,99600.50
2023-05-01T15:08:25.212Z,99597.66
2023-05-01T15:10:53.739Z,99596.91
2023-05-01T15:13:22.383Z,99586.47
2023-05-01T15:15:50.685Z,99594.41
2023-05-01T15:18:19.310Z,99584.69
2023-05-01T15:20:48.759Z,99590.78
2023-05-01T15:23:17.050Z,99590.75
2023-05-01T15:25:45.795Z,99590.59
2023-05-01T15:28:14.479Z,99602.09
2023-05-01T15:30:47.608Z,99598.97
2023-05-01T15:33:18.814Z,99592.69
2023-05-01T15:35:49.052Z,99589.59
2023-05-01T15:38:18.244Z,99599.00
2023-05-01T15:40:46.844Z,99594.00
2023-05-01T15:43:15.195Z,99593.69
2023-05-01T15:45:44.931Z,99591.38
2023-05-01T15:48:13.353Z,99586.94
2023-05-01T15:50:41.745Z,99590.03
2023-05-01T15:53:09.871Z,99593.16
2023-05-01T15:55:37.810Z,99596.91
2023-05-01T15:58:06.117Z,99589.63
2023-05-01T16:00:36.118Z,99587.31
2023-05-01T16:03:04.764Z,99584.72
2023-05-01T16:05:33.089Z,99579.16
2023-05-01T16:08:01.820Z,99586.78
2023-05-01T16:10:33.340Z,99578.78
2023-05-01T16:13:01.815Z,99584.41
2023-05-01T16:15:31.358Z,99580.59
2023-05-01T16:18:00.268Z,99577.50
2023-05-01T16:20:35.254Z,99567.22
2023-05-01T16:23:03.603Z,99569.81
2023-05-01T16:25:56.592Z,99579.00
2023-05-01T16:28:26.459Z,99578.63
2023-05-01T16:30:54.443Z,99579.19
2023-05-01T16:33:23.645Z,99576.31
2023-05-01T16:35:52.466Z,99577.59
2023-05-01T16:38:21.748Z,99576.84
2023-05-01T16:40:49.845Z,99574.69
2023-05-01T16:43:20.107Z,99569.81
2023-05-01T16:45:48.376Z,99559.78
2023-05-01T16:48:24.243Z,99561.50
2023-05-01T16:50:53.353Z,99562.19
2023-05-01T16:53:22.376Z,99559.06
2023-05-01T16:55:50.608Z,99560.75
2023-05-01T16:58:19.440Z,99553.19
2023-05-01T17:00:47.707Z,99551.91
2023-05-01T17:03:16.288Z,99554.66
2023-05-01T17:05:44.996Z,99569.03
2023-05-01T17:08:13.128Z,99570.28
2023-05-01T17:10:41.299Z,99563.41
2023-05-01T17:13:09.478Z,99564.66
2023-05-01T17:15:37.865Z,99561.13
2023-05-01T17:18:06.272Z,99560.50
2023-05-01T17:20:34.559Z,99565.91
2023-05-01T17:23:02.800Z,99579.09
2023-05-01T17:25:31.149Z,99571.09
2023-05-01T17:27:59.358Z,99574.66
2023-05-01T17:30:27.690Z,99578.09
2023-05-01T17:32:57.375Z,99584.84
2023-05-01T17:35:26.646Z,99586.25
2023-05-01T17:37:56.368Z,99585.06
2023-05-01T17:40:24.449Z,99590.13
2023-05-01T17:42:52.927Z,99598.47
2023-05-01T17:45:21.222Z,99596.03
2023-05-01T17:47:49.157Z,99607.78
2023-05-01T17:50:17.461Z,99618.56
2023-05-01T17:52:45.783Z,99604.03
2023-05-01T17:55:17.119Z,99609.22
2023-05-01T17:57:47.327Z,99613.06
2023-05-01T18:00:16.466Z,99611.22
2023-05-01T18:02:46.650Z,99613.56
2023-05-01T18:05:15.425Z,99615.19
2023-05-01T18:07:44.307Z,99607.16
2023-05-01T18:10:12.668Z,99603.94
2023-05-01T18:12:40.860Z,99610.34
2023-05-01T18:15:09.963Z,99615.31
2023-05-01T18:17:38.144Z,99618.63
2023-05-01T18:20:07.770Z,99621.53
2023-05-01T18:22:35.999Z,99622.16
2023-05-01T18:25:05.488Z,99617.75
2023-05-01T18:27:34.182Z,99612.56
2023-05-01T18:30:03.530Z,99618.28
2023-05-01T18:32:46.225Z,99614.84
2023-05-01T18:35:17.485Z,99615.44
2023-05-01T18:37:45.851Z,99620.72
2023-05-01T18:40:14.889Z,99622.78
2023-05-01T18:42:46.902Z,99619.31
2023-05-01T18:45:15.081Z,99617.44
2023-05-01T18:47:43.464Z,99621.00
2023-05-01T18:50:11.860Z,99618.66
2023-05-01T18:52:41.873Z,99615.81
2023-05-01T18:55:11.827Z,99618.81
2023-05-01T18:57:43.836Z,99614.41
2023-05-01T19:00:15.856Z,99616.16
2023-05-01T19:02:52.523Z,99614.75
2023-05-01T19:05:22.902Z,99612.00
2023-05-01T19:07:51.575Z,99610.31
2023-05-01T19:10:20.520Z,99605.28
2023-05-01T19:12:49.518Z,99611.50
2023-05-01T19:15:18.046Z,99600.00
2023-05-01T19:17:46.342Z,99606.63
2023-05-01T19:20:14.633Z,99611.00
2023-05-01T19:22:42.724Z,99601.63
2023-05-01T19:25:11.152Z,99600.38
2023-05-01T19:27:39.212Z,99604.91
2023-05-01T19:30:08.250Z,99605.13
2023-05-01T19:32:36.561Z,99602.59
2023-05-01T19:35:05.488Z,99602.75
2023-05-01T19:37:33.666Z,99605.56
2023-05-01T19:40:02.065Z,99602.50
2023-05-01T19:42:31.707Z,99608.78
2023-05-01T19:44:59.783Z,99605.16
2023-05-01T19:47:27.965Z,99600.53
2023-05-01T19:49:57.747Z,99603.38
2023-05-01T19:52:26.464Z,99609.22
2023-05-01T19:54:54.717Z,99601.69
2023-05-01T19:57:22.907Z,99603.34
2023-05-01T19:59:52.933Z,99602.22
2023-05-01T20:02:22.428Z,99603.03
2023-05-01T20:04:50.732Z,99594.75
2023-05-01T20:07:18.884Z,99598.56
2023-05-01T20:09:47.638Z,99612.94
2023-05-01T20:12:15.831Z,99609.97
2023-05-01T20:14:44.727Z,99608.03
2023-05-01T20:17:12.849Z,99610.09
2023-05-01T20:19:41.080Z,99608.81
2023-05-01T20:22:10.715Z,99609.91
2023-05-01T20:24:39.236Z,99606.81
2023-05-01T20:27:07.427Z,99609.84
2023-05-01T20:29:35.645Z,99601.38
2023-05-01T20:32:04.032Z,99600.09
2023-05-01T20:34:32.769Z,99599.56
2023-05-01T20:37:01.027Z,99596.78
2023-05-01T20:39:29.815Z,99598.44
2023-05-01T20:41:59.561Z,99586.44
2023-05-01T20:44:28.037Z,99592.47
2023-05-01T20:46:56.445Z,99585.59
2023-05-01T20:49:24.943Z,99591.03
2023-05-01T20:51:53.208Z,99588.81
2023-05-01T20:54:21.430Z,99587.81
2023-05-01T20:56:49.516Z,99590.97
2023-05-01T20:59:18.010Z,99588.88
2023-05-01T21:01:46.150Z,99593.47
2023-05-01T21:04:14.554Z,99589.38
2023-05-01T21:06:42.821Z,99592.75
2023-05-01T21:09:15.177Z,99591.59
2023-05-01T21:11:43.503Z,99600.41
2023-05-01T21:14:12.387Z,99597.41
2023-05-01T21:16:41.606Z,99597.41
2023-05-01T21:19:12.965Z,99605.63
2023-05-01T21:21:41.029Z,99597.06
2023-05-01T21:24:13.005Z,99595.69
2023-05-01T21:26:41.357Z,99592.19
2023-05-01T21:29:10.189Z,99594.13
2023-05-01T21:31:39.389Z,99597.44
2023-05-01T21:34:09.213Z,99594.31
2023-05-01T21:36:46.985Z,99587.47
2023-05-01T21:39:16.794Z,99584.38
2023-05-01T21:41:48.695Z,99581.72
2023-05-01T21:44:17.409Z,99589.34
2023-05-01T21:46:45.611Z,99592.19
2023-05-01T21:49:17.096Z,99581.78
2023-05-01T21:51:45.239Z,99580.03
2023-05-01T21:54:14.556Z,99579.25
2023-05-01T21:56:42.926Z,99577.63
2023-05-01T21:59:12.275Z,99581.50
2023-05-01T22:01:41.826Z,99579.56
2023-05-01T22:04:10.054Z,99581.75
2023-05-01T22:06:38.348Z,99576.19
2023-05-01T22:09:06.522Z,99568.97
2023-05-01T22:11:35.237Z,99564.00
2023-05-01T22:14:03.297Z,99567.56
2023-05-01T22:16:31.490Z,99571.25
2023-05-01T22:19:00.548Z,99563.03
2023-05-01T22:21:30.874Z,99567.56
2023-05-01T22:23:58.960Z,99558.59
2023-05-01T22:26:27.105Z,99551.38
2023-05-01T22:28:55.469Z,99552.38
2023-05-01T22:31:23.697Z,99551.66
2023-05-01T22:33:53.517Z,99545.19
2023-05-01T22:36:21.667Z,99543.91
2023-05-01T22:38:49.666Z,99538.88
2023-05-01T22:41:17.720Z,99539.38
2023-05-01T22:43:45.849Z,99539.94
2023-05-01T22:46:13.791Z,99539.09
2023-05-01T22:48:41.931Z,99531.66
2023-05-01T22:51:10.075Z,99537.69
2023-05-01T22:53:38.143Z,99536.97
2023-05-01T22:56:07.103Z,99527.94
2023-05-01T22:58:35.345Z,99530.94
2023-05-01T23:01:03.615Z,99530.66
2023-05-01T23:03:36.488Z,99532.72
2023-05-01T23:06:06.613Z,99535.19
2023-05-01T23:08:34.535Z,99529.69
2023-05-01T23:11:04.716Z,99528.59
2023-05-01T23:13:32.805Z,99523.69
2023-05-01T23:16:00.828Z,99524.50
2023-05-01T23:18:36.700Z,99517.81
2023-05-01T23:21:05.406Z,99516.38
2023-05-01T23:23:35.819Z,99511.13
2023-05-01T23:26:03.866Z,99510.19
2023-05-01T23:28:32.149Z,99514.78
2023-05-01T23:31:02.682Z,99505.16
2023-05-01T23:33:39.467Z,99503.31
2023-05-01T23:36:12.466Z,99496.22
2023-05-01T23:38:41.198Z,99499.78
2023-05-01T23:41:09.473Z,99499.06
2023-05-01T23:43:39.074Z,99490.78
2023-05-01T23:46:08.133Z,99501.91
2023-05-01T23:48:36.334Z,99499.63
2023-05-01T23:51:04.615Z,99497.13
2023-05-01T23:53:33.021Z,99499.13
2023-05-01T23:56:01.300Z,99493.44
2023-05-01T23:58:29.246Z,99494.28
